createdAt,value
2023-03-02T00:02:12.858Z,1.93
2023-03-02T00:04:59.608Z,1.88
2023-03-02T00:07:42.456Z,1.87
2023-03-02T00:10:25.362Z,1.73
2023-03-02T00:13:09.682Z,1.97
2023-03-02T00:15:52.568Z,1.96
2023-03-02T00:18:35.428Z,1.91
2023-03-02T00:21:18.277Z,1.91
2023-03-02T00:24:01.167Z,1.81
2023-03-02T00:26:44.090Z,1.76
2023-03-02T00:29:29.259Z,1.85
2023-03-02T00:32:18.112Z,1.84
2023-03-02T00:35:01.055Z,1.85
2023-03-02T00:37:44.991Z,1.79
2023-03-02T00:40:27.845Z,1.50
2023-03-02T00:43:10.754Z,1.31
2023-03-02T00:45:55.367Z,1.35
2023-03-02T00:48:38.225Z,1.61
2023-03-02T00:51:21.652Z,1.64
2023-03-02T00:54:04.675Z,1.52
2023-03-02T00:56:47.532Z,1.57
2023-03-02T00:59:30.734Z,1.41
2023-03-02T01:02:44.771Z,1.52
2023-03-02T01:05:31.606Z,1.47
2023-03-02T01:08:14.610Z,1.47
2023-03-02T01:10:57.446Z,1.58
2023-03-02T01:13:40.266Z,1.61
2023-03-02T01:16:23.118Z,1.44
2023-03-02T01:19:07.394Z,1.54
2023-03-02T01:21:50.490Z,1.75
2023-03-02T01:24:33.674Z,1.63
2023-03-02T01:27:16.983Z,1.67
2023-03-02T01:29:59.975Z,1.70
2023-03-02T01:32:42.815Z,1.36
2023-03-02T01:35:27.092Z,1.48
2023-03-02T01:38:10.049Z,1.70
2023-03-02T01:40:52.914Z,1.57
2023-03-02T01:43:36.042Z,1.57
2023-03-02T01:46:21.176Z,1.34
2023-03-02T01:49:12.809Z,1.42
2023-03-02T01:52:12.152Z,1.55
2023-03-02T01:54:59.569Z,1.39
2023-03-02T01:57:45.384Z,1.55
2023-03-02T02:00:31.067Z,1.71
2023-03-02T02:03:20.889Z,1.85
2023-03-02T02:06:18.110Z,2.01
2023-03-02T02:09:04.817Z,2.08
2023-03-02T02:11:48.174Z,2.19
2023-03-02T02:14:31.076Z,2.23
2023-03-02T02:17:14.760Z,2.28
2023-03-02T02:20:11.038Z,2.33
2023-03-02T02:23:06.939Z,2.27
2023-03-02T02:26:13.877Z,2.28
2023-03-02T02:29:01.583Z,2.29
2023-03-02T02:31:49.517Z,2.16
2023-03-02T02:34:36.509Z,2.16
2023-03-02T02:37:24.948Z,2.16
2023-03-02T02:40:15.093Z,2.24
2023-03-02T02:43:00.029Z,2.24
2023-03-02T02:45:43.302Z,2.20
2023-03-02T02:48:31.132Z,2.01
2023-03-02T02:51:19.623Z,2.06
2023-03-02T02:54:04.568Z,2.07
2023-03-02T02:56:53.053Z,1.93
2023-03-02T02:59:40.049Z,2.08
2023-03-02T03:02:25.921Z,1.97
2023-03-02T03:05:15.416Z,2.09
2023-03-02T03:08:09.059Z,2.04
2023-03-02T03:10:52.807Z,1.82
2023-03-02T03:13:36.239Z,1.90
2023-03-02T03:16:22.182Z,1.87
2023-03-02T03:19:11.398Z,1.97
2023-03-02T03:21:56.178Z,1.79
2023-03-02T03:24:42.214Z,1.81
2023-03-02T03:27:25.109Z,1.96
2023-03-02T03:30:09.135Z,1.90
2023-03-02T03:32:53.893Z,1.92
2023-03-02T03:35:36.996Z,1.85
2023-03-02T03:38:20.349Z,1.87
2023-03-02T03:41:03.404Z,2.09
2023-03-02T03:43:46.444Z,1.82
2023-03-02T03:46:29.900Z,2.00
2023-03-02T03:49:14.722Z,2.06
2023-03-02T03:51:57.928Z,2.13
2023-03-02T03:54:41.036Z,2.11
2023-03-02T03:57:24.208Z,2.07
2023-03-02T04:00:10.600Z,2.08
2023-03-02T04:02:57.163Z,2.08
2023-03-02T04:05:43.392Z,1.76
2023-03-02T04:08:26.785Z,1.88
2023-03-02T04:11:09.949Z,1.95
2023-03-02T04:13:53.235Z,1.82
2023-03-02T04:16:37.117Z,1.91
2023-03-02T04:19:20.224Z,2.01
2023-03-02T04:22:07.198Z,1.92
2023-03-02T04:24:50.985Z,1.94
2023-03-02T04:27:34.172Z,1.99
2023-03-02T04:30:20.347Z,1.90
2023-03-02T04:33:03.452Z,1.90
2023-03-02T04:35:47.721Z,1.92
2023-03-02T04:38:32.060Z,2.00
2023-03-02T04:41:15.113Z,2.02
2023-03-02T04:43:58.052Z,1.89
2023-03-02T04:46:43.496Z,1.87
2023-03-02T04:49:27.275Z,1.98
2023-03-02T04:52:10.160Z,2.02
2023-03-02T04:54:54.351Z,1.99
2023-03-02T04:57:37.146Z,2.08
2023-03-02T05:00:22.011Z,2.10
2023-03-02T05:03:06.259Z,1.97
2023-03-02T05:05:49.073Z,2.10
2023-03-02T05:08:32.113Z,2.15
2023-03-02T05:11:25.864Z,2.20
2023-03-02T05:14:10.371Z,2.24
2023-03-02T05:16:53.433Z,2.20
2023-03-02T05:19:36.328Z,2.15
2023-03-02T05:22:19.147Z,2.20
2023-03-02T05:25:01.963Z,2.24
2023-03-02T05:27:46.213Z,2.30
2023-03-02T05:30:30.930Z,2.29
2023-03-02T05:33:13.854Z,2.21
2023-03-02T05:35:56.721Z,2.20
2023-03-02T05:38:39.790Z,2.21
2023-03-02T05:41:22.688Z,2.23
2023-03-02T05:44:09.481Z,2.14
2023-03-02T05:46:52.371Z,2.20
2023-03-02T05:49:35.173Z,2.22
2023-03-02T05:52:18.007Z,2.22
2023-03-02T05:55:00.805Z,2.15
2023-03-02T05:57:44.208Z,2.20
2023-03-02T06:00:28.638Z,2.30
2023-03-02T06:03:11.650Z,2.33
2023-03-02T06:05:54.529Z,2.35
2023-03-02T06:08:40.971Z,2.47
2023-03-02T06:11:24.014Z,2.46
2023-03-02T06:14:06.827Z,2.57
2023-03-02T06:16:51.076Z,2.61
2023-03-02T06:19:33.977Z,2.70
2023-03-02T06:22:16.838Z,2.73
2023-03-02T06:24:59.645Z,2.73
2023-03-02T06:27:43.514Z,2.85
2023-03-02T06:30:27.906Z,2.82
2023-03-02T06:33:12.151Z,2.89
2023-03-02T06:35:55.163Z,2.95
2023-03-02T06:38:38.057Z,2.96
2023-03-02T06:41:20.887Z,3.08
2023-03-02T06:44:03.694Z,3.14
2023-03-02T06:46:46.828Z,3.15
2023-03-02T06:49:31.056Z,3.27
2023-03-02T06:52:14.425Z,3.31
2023-03-02T06:54:57.362Z,3.50
2023-03-02T06:57:40.650Z,3.58
2023-03-02T07:00:27.983Z,3.59
2023-03-02T07:03:10.965Z,3.46
2023-03-02T07:05:55.114Z,3.55
2023-03-02T07:08:37.984Z,3.68
2023-03-02T07:11:20.785Z,3.83
2023-03-02T07:14:04.098Z,3.91
2023-03-02T07:16:47.008Z,4.05
2023-03-02T07:19:29.789Z,3.86
2023-03-02T07:22:13.962Z,3.93
2023-03-02T07:24:56.753Z,4.26
2023-03-02T07:27:40.167Z,4.34
2023-03-02T07:30:23.003Z,4.38
2023-03-02T07:33:05.822Z,4.46
2023-03-02T07:35:49.381Z,4.62
2023-03-02T07:38:33.848Z,4.68
2023-03-02T07:41:16.828Z,4.78
2023-03-02T07:43:59.797Z,4.88
2023-03-02T07:46:42.610Z,4.97
2023-03-02T07:49:25.572Z,4.98
2023-03-02T07:52:08.404Z,5.01
2023-03-02T07:54:52.820Z,5.04
2023-03-02T07:57:35.668Z,5.05
2023-03-02T08:00:19.851Z,5.18
2023-03-02T08:03:02.762Z,5.04
2023-03-02T08:05:45.620Z,5.10
2023-03-02T08:08:28.428Z,5.29
2023-03-02T08:11:15.741Z,5.27
2023-03-02T08:14:00.816Z,5.38
2023-03-02T08:16:43.690Z,5.55
2023-03-02T08:19:26.879Z,5.48
2023-03-02T08:22:09.707Z,5.73
2023-03-02T08:24:52.561Z,5.65
2023-03-02T08:27:36.805Z,5.78
2023-03-02T08:30:20.231Z,5.92
2023-03-02T08:33:06.648Z,6.02
2023-03-02T08:35:56.125Z,6.01
2023-03-02T08:38:39.537Z,6.05
2023-03-02T08:41:24.420Z,5.97
2023-03-02T08:44:09.148Z,6.04
2023-03-02T08:46:52.665Z,6.12
2023-03-02T08:49:37.899Z,6.28
2023-03-02T08:52:20.678Z,6.43
2023-03-02T08:55:04.275Z,6.21
2023-03-02T08:57:47.681Z,6.25
2023-03-02T09:00:31.930Z,6.48
2023-03-02T09:03:15.242Z,6.62
2023-03-02T09:05:58.952Z,6.79
2023-03-02T09:08:41.850Z,6.90
2023-03-02T09:11:25.301Z,7.20
2023-03-02T09:14:08.184Z,7.39
2023-03-02T09:16:52.814Z,7.45
2023-03-02T09:19:43.798Z,7.54
2023-03-02T09:22:27.201Z,7.70
2023-03-02T09:25:10.358Z,7.66
2023-03-02T09:27:53.168Z,7.64
2023-03-02T09:30:36.016Z,7.84
2023-03-02T09:33:21.161Z,8.07
2023-03-02T09:36:07.437Z,8.23
2023-03-02T09:38:50.760Z,8.49
2023-03-02T09:41:53.993Z,8.63
2023-03-02T09:44:51.547Z,8.33
2023-03-02T09:47:39.737Z,8.57
2023-03-02T09:50:33.008Z,8.02
2023-03-02T09:53:31.076Z,8.27
2023-03-02T09:56:17.228Z,8.37
2023-03-02T09:59:04.320Z,8.43
2023-03-02T10:01:52.179Z,8.77
2023-03-02T10:04:42.594Z,9.15
2023-03-02T10:07:30.036Z,9.10
2023-03-02T10:10:24.975Z,9.26
2023-03-02T10:13:17.509Z,9.54
2023-03-02T10:16:14.919Z,9.87
2023-03-02T10:19:06.189Z,9.88
2023-03-02T10:21:53.181Z,9.66
2023-03-02T10:24:42.172Z,9.81
2023-03-02T10:27:30.443Z,9.95
2023-03-02T10:30:20.431Z,9.64
2023-03-02T10:33:09.423Z,9.56
2023-03-02T10:35:54.103Z,9.65
2023-03-02T10:38:38.121Z,9.80
2023-03-02T10:41:26.543Z,10.10
2023-03-02T10:44:18.965Z,10.12
2023-03-02T10:47:01.760Z,10.06
2023-03-02T10:49:48.578Z,9.87
2023-03-02T10:52:31.385Z,9.92
2023-03-02T10:55:16.260Z,9.86
2023-03-02T10:58:02.654Z,9.69
2023-03-02T11:00:56.068Z,9.97
2023-03-02T11:03:38.915Z,10.33
2023-03-02T11:06:22.836Z,10.66
2023-03-02T11:09:07.702Z,10.98
2023-03-02T11:11:53.892Z,10.88
2023-03-02T11:14:38.307Z,10.66
2023-03-02T11:17:30.980Z,10.69
2023-03-02T11:20:17.355Z,10.78
2023-03-02T11:23:23.471Z,10.72
2023-03-02T11:26:13.688Z,11.07
2023-03-02T11:29:02.054Z,11.33
2023-03-02T11:31:51.163Z,11.63
2023-03-02T11:34:43.514Z,11.89
2023-03-02T11:37:32.295Z,12.16
2023-03-02T11:40:22.541Z,12.43
2023-03-02T11:43:05.571Z,12.63
2023-03-02T11:45:53.097Z,12.68
2023-03-02T11:48:42.755Z,12.46
2023-03-02T11:51:29.447Z,12.53
2023-03-02T11:54:28.912Z,12.06
2023-03-02T11:57:22.910Z,11.99
2023-03-02T12:00:12.513Z,12.02
2023-03-02T12:03:06.692Z,11.92
2023-03-02T12:06:05.268Z,11.84
2023-03-02T12:08:53.020Z,11.84
2023-03-02T12:11:39.547Z,11.61
2023-03-02T12:14:29.046Z,11.89
2023-03-02T12:17:31.171Z,11.75
2023-03-02T12:20:26.998Z,11.97
2023-03-02T12:23:23.465Z,12.03
2023-03-02T12:26:10.483Z,12.07
2023-03-02T12:29:00.129Z,12.15
2023-03-02T12:31:46.314Z,11.86
2023-03-02T12:34:37.970Z,11.74
2023-03-02T12:37:25.958Z,11.72
2023-03-02T12:40:32.745Z,11.72
2023-03-02T12:43:26.663Z,11.99
2023-03-02T12:46:32.178Z,12.18
2023-03-02T12:49:27.181Z,11.65
2023-03-02T12:52:23.873Z,11.49
2023-03-02T12:55:16.466Z,11.65
2023-03-02T12:58:02.384Z,11.80
2023-03-02T13:00:51.745Z,12.04
2023-03-02T13:03:34.676Z,12.23
2023-03-02T13:06:20.283Z,12.36
2023-03-02T13:09:03.472Z,12.43
2023-03-02T13:11:46.486Z,12.03
2023-03-02T13:14:30.682Z,12.31
2023-03-02T13:17:24.050Z,12.59
2023-03-02T13:20:08.024Z,12.60
2023-03-02T13:22:51.428Z,12.01
2023-03-02T13:25:34.285Z,11.95
2023-03-02T13:28:27.614Z,11.73
2023-03-02T13:31:21.770Z,11.54
2023-03-02T13:34:04.807Z,11.31
2023-03-02T13:36:47.751Z,11.27
2023-03-02T13:39:32.592Z,11.07
2023-03-02T13:42:27.575Z,10.96
2023-03-02T13:45:24.924Z,10.55
2023-03-02T13:48:16.507Z,11.02
2023-03-02T13:51:02.861Z,11.14
2023-03-02T13:53:52.778Z,11.04
2023-03-02T13:56:38.279Z,10.88
2023-03-02T13:59:22.826Z,10.89
2023-03-02T14:02:20.674Z,10.59
2023-03-02T14:05:07.370Z,10.56
2023-03-02T14:07:50.897Z,10.64
2023-03-02T14:10:33.707Z,10.77
2023-03-02T14:13:18.693Z,10.82
2023-03-02T14:16:01.524Z,10.67
2023-03-02T14:18:47.332Z,10.38
2023-03-02T14:21:31.959Z,10.42
2023-03-02T14:24:15.374Z,10.10
2023-03-02T14:26:58.224Z,10.11
2023-03-02T14:29:41.182Z,10.17
2023-03-02T14:32:24.011Z,10.05
2023-03-02T14:35:09.298Z,9.98
2023-03-02T14:37:53.499Z,9.95
2023-03-02T14:40:36.568Z,10.01
2023-03-02T14:43:21.288Z,9.98
2023-03-02T14:46:03.945Z,9.80
2023-03-02T14:48:46.822Z,9.85
2023-03-02T14:51:34.693Z,9.92
2023-03-02T14:54:21.036Z,9.84
2023-03-02T14:57:06.186Z,9.81
2023-03-02T14:59:49.480Z,9.77
2023-03-02T15:02:32.515Z,9.58
2023-03-02T15:05:15.534Z,9.47
2023-03-02T15:07:58.922Z,9.47
2023-03-02T15:10:43.605Z,9.49
2023-03-02T15:13:26.408Z,9.51
2023-03-02T15:16:11.377Z,9.52
2023-03-02T15:18:55.355Z,9.48
2023-03-02T15:21:44.781Z,9.43
2023-03-02T15:24:27.605Z,9.37
2023-03-02T15:27:11.758Z,9.35
2023-03-02T15:29:56.682Z,9.23
2023-03-02T15:32:39.930Z,9.23
2023-03-02T15:35:22.818Z,9.24
2023-03-02T15:38:05.607Z,9.17
2023-03-02T15:40:48.435Z,9.07
2023-03-02T15:43:32.734Z,8.98
2023-03-02T15:46:16.267Z,8.89
2023-03-02T15:48:59.118Z,8.86
2023-03-02T15:51:41.915Z,8.81
2023-03-02T15:54:25.291Z,8.66
2023-03-02T15:57:10.104Z,8.55
2023-03-02T15:59:54.338Z,8.41
2023-03-02T16:02:37.156Z,8.23
2023-03-02T16:05:20.054Z,8.11
2023-03-02T16:08:02.859Z,8.16
2023-03-02T16:10:46.162Z,8.26
2023-03-02T16:13:30.326Z,8.45
2023-03-02T16:16:14.533Z,8.68
2023-03-02T16:18:58.628Z,8.81
2023-03-02T16:21:41.446Z,8.73
2023-03-02T16:24:24.356Z,8.73
2023-03-02T16:27:07.235Z,8.65
2023-03-02T16:29:50.042Z,8.34
2023-03-02T16:32:34.274Z,8.16
2023-03-02T16:35:17.145Z,7.78
2023-03-02T16:38:00.243Z,7.64
2023-03-02T16:40:43.113Z,7.42
2023-03-02T16:43:26.070Z,7.32
2023-03-02T16:46:08.935Z,7.27
2023-03-02T16:48:53.452Z,7.21
2023-03-02T16:51:36.410Z,7.09
2023-03-02T16:54:19.229Z,6.95
2023-03-02T16:57:02.070Z,6.70
2023-03-02T16:59:44.894Z,6.66
2023-03-02T17:02:29.232Z,6.40
2023-03-02T17:05:15.516Z,6.26
2023-03-02T17:08:00.122Z,6.26
2023-03-02T17:10:43.111Z,6.29
2023-03-02T17:13:25.932Z,6.26
2023-03-02T17:16:09.032Z,6.19
2023-03-02T17:18:51.865Z,6.14
2023-03-02T17:21:36.053Z,6.06
2023-03-02T17:24:18.810Z,6.00
2023-03-02T17:27:01.797Z,5.91
2023-03-02T17:29:44.637Z,5.81
2023-03-02T17:32:27.503Z,5.72
2023-03-02T17:35:15.292Z,5.65
2023-03-02T17:37:59.483Z,5.58
2023-03-02T17:40:42.431Z,5.51
2023-03-02T17:43:25.275Z,5.45
2023-03-02T17:46:20.216Z,5.37
2023-03-02T17:49:03.007Z,5.22
2023-03-02T17:51:45.972Z,5.16
2023-03-02T17:54:30.161Z,5.15
2023-03-02T17:57:14.373Z,5.21
2023-03-02T17:59:57.870Z,5.23
2023-03-02T18:02:40.651Z,5.23
2023-03-02T18:05:24.124Z,5.22
2023-03-02T18:08:06.985Z,5.14
2023-03-02T18:10:51.378Z,5.04
2023-03-02T18:13:34.237Z,4.83
2023-03-02T18:16:17.112Z,4.76
2023-03-02T18:19:00.009Z,4.82
2023-03-02T18:21:43.025Z,4.84
2023-03-02T18:24:26.052Z,4.82
2023-03-02T18:27:10.404Z,4.78
2023-03-02T18:29:53.207Z,4.50
2023-03-02T18:32:36.091Z,4.49
2023-03-02T18:35:19.394Z,4.66
2023-03-02T18:38:02.319Z,4.62
2023-03-02T18:40:45.283Z,4.77
2023-03-02T18:43:31.568Z,4.74
2023-03-02T18:46:20.162Z,4.73
2023-03-02T18:49:04.518Z,4.81
2023-03-02T18:51:47.725Z,4.72
2023-03-02T18:54:30.559Z,4.74
2023-03-02T18:57:13.905Z,4.74
2023-03-02T18:59:58.036Z,4.70
2023-03-02T19:02:40.866Z,4.72
2023-03-02T19:05:26.813Z,4.78
2023-03-02T19:08:09.768Z,4.60
2023-03-02T19:10:53.711Z,4.60
2023-03-02T19:13:36.500Z,4.61
2023-03-02T19:16:20.748Z,4.59
2023-03-02T19:19:03.603Z,4.61
2023-03-02T19:21:46.404Z,4.60
2023-03-02T19:24:29.340Z,4.56
2023-03-02T19:27:12.722Z,4.52
2023-03-02T19:29:55.649Z,4.45
2023-03-02T19:32:39.954Z,4.38
2023-03-02T19:35:24.825Z,4.34
2023-03-02T19:38:08.832Z,4.29
2023-03-02T19:40:51.698Z,4.30
2023-03-02T19:43:34.494Z,4.33
2023-03-02T19:46:18.967Z,4.31
2023-03-02T19:49:03.195Z,4.21
2023-03-02T19:51:46.085Z,4.12
2023-03-02T19:54:28.980Z,4.06
2023-03-02T19:57:11.792Z,4.00
2023-03-02T19:59:54.662Z,4.00
2023-03-02T20:02:39.565Z,4.03
2023-03-02T20:05:25.945Z,4.08
2023-03-02T20:08:09.841Z,4.14
2023-03-02T20:10:52.764Z,4.07
2023-03-02T20:13:35.819Z,4.14
2023-03-02T20:16:19.494Z,4.14
2023-03-02T20:19:03.412Z,4.14
2023-03-02T20:21:47.617Z,4.08
2023-03-02T20:24:30.551Z,4.04
2023-03-02T20:27:13.968Z,4.00
2023-03-02T20:29:56.874Z,3.97
2023-03-02T20:32:39.791Z,3.97
2023-03-02T20:35:24.000Z,3.99
2023-03-02T20:38:09.767Z,4.01
2023-03-02T20:40:52.730Z,4.00
2023-03-02T20:43:35.937Z,3.94
2023-03-02T20:46:21.696Z,3.90
2023-03-02T20:49:06.079Z,3.83
2023-03-02T20:51:54.520Z,3.77
2023-03-02T20:54:42.123Z,3.72
2023-03-02T20:57:25.157Z,3.67
2023-03-02T21:00:11.592Z,3.63
2023-03-02T21:02:54.844Z,3.63
2023-03-02T21:05:41.072Z,3.60
2023-03-02T21:08:23.997Z,3.57
2023-03-02T21:11:10.614Z,3.56
2023-03-02T21:13:55.630Z,3.55
2023-03-02T21:16:40.137Z,3.55
2023-03-02T21:19:23.790Z,3.56
2023-03-02T21:22:06.767Z,3.57
2023-03-02T21:24:49.612Z,3.57
2023-03-02T21:27:33.783Z,3.53
2023-03-02T21:30:19.970Z,3.51
2023-03-02T21:33:03.410Z,3.48
2023-03-02T21:35:46.975Z,3.45
2023-03-02T21:38:29.902Z,3.46
2023-03-02T21:41:12.792Z,3.47
2023-03-02T21:43:57.800Z,3.42
2023-03-02T21:46:40.637Z,3.34
2023-03-02T21:49:24.133Z,3.30
2023-03-02T21:52:07.856Z,3.29
2023-03-02T21:54:50.692Z,3.29
2023-03-02T21:57:33.651Z,3.31
2023-03-02T22:00:22.818Z,3.32
2023-03-02T22:03:06.602Z,3.27
2023-03-02T22:05:49.617Z,3.25
2023-03-02T22:08:35.303Z,3.22
2023-03-02T22:11:22.584Z,3.23
2023-03-02T22:14:12.839Z,3.29
2023-03-02T22:16:57.001Z,3.41
2023-03-02T22:19:39.910Z,3.52
2023-03-02T22:22:25.142Z,3.65
2023-03-02T22:25:15.864Z,3.67
2023-03-02T22:27:58.661Z,3.68
2023-03-02T22:30:41.648Z,3.49
2023-03-02T22:33:28.092Z,3.50
2023-03-02T22:36:16.208Z,3.46
2023-03-02T22:39:07.415Z,3.42
2023-03-02T22:41:51.125Z,3.39
2023-03-02T22:44:34.410Z,3.36
2023-03-02T22:47:20.953Z,3.26
2023-03-02T22:50:22.788Z,3.04
2023-03-02T22:53:23.102Z,2.87
2023-03-02T22:56:23.586Z,2.76
2023-03-02T22:59:15.226Z,2.76
2023-03-02T23:02:01.058Z,2.84
2023-03-02T23:04:44.286Z,2.94
2023-03-02T23:07:28.412Z,2.95
2023-03-02T23:10:18.443Z,2.90
2023-03-02T23:13:01.173Z,2.86
2023-03-02T23:15:44.148Z,2.88
2023-03-02T23:18:29.515Z,2.89
2023-03-02T23:21:21.643Z,2.84
2023-03-02T23:24:07.503Z,2.80
2023-03-02T23:26:52.230Z,2.78
2023-03-02T23:29:35.270Z,2.60
2023-03-02T23:32:19.517Z,2.56
2023-03-02T23:35:02.375Z,2.38
2023-03-02T23:37:45.148Z,2.47
2023-03-02T23:40:30.058Z,2.47
2023-03-02T23:43:12.839Z,2.45
2023-03-02T23:45:56.200Z,2.43
2023-03-02T23:48:38.978Z,2.51
2023-03-02T23:51:22.231Z,2.56
2023-03-02T23:54:05.332Z,2.61
2023-03-02T23:56:49.652Z,2.67
2023-03-02T23:59:32.397Z,2.71
